Lomax, Illinois
Current Conditions -  °F | °C
As of 9:53 AM on Thursday 18 Dec 2014 (Local Time) from KBRL Reporting Station
Unknown Precip Unknown Precip  
Wind Chill: 25°   Ceiling: 9000
Heat Index: 25°   Visibility: 9mi
Dew Point: 20°   Wind: 0mph
Humidity: 81%   Direction: NA
Pressure: 30.3"   Gusts: NA
Location:  40.68°N, 91.07°W
Report Text: KBRL 181553Z AUTO 00000KT 9SM UP FEW023 OVC090 M04/M07 A3030 RMK AO2 UPE01B20SNB01E20B39E53 SLP271 P0000 T10391067
Loading
Personal Weather Stations






























Interactive Weather Map New forecast layout! Learn more

10-Day Weather Forecast

Advertisements
Track Severe Weather on mobile